createdAt,value
2019-03-09T00:03:06.875Z,25.08
2019-03-09T00:08:13.150Z,14.03
2019-03-09T00:13:19.349Z,15.60
2019-03-09T00:18:25.503Z,14.50
2019-03-09T00:23:47.973Z,13.35
2019-03-09T00:29:13.110Z,17.73
2019-03-09T00:34:19.357Z,16.30
2019-03-09T00:39:25.603Z,9.30
2019-03-09T00:44:31.602Z,18.23
2019-03-09T00:49:37.782Z,16.75
2019-03-09T00:54:43.867Z,10.05
2019-03-09T00:59:55.007Z,14.18
2019-03-09T01:05:01.106Z,13.95
2019-03-09T01:10:09.321Z,17.60
2019-03-09T01:15:15.820Z,14.83
2019-03-09T01:20:21.976Z,14.60
2019-03-09T01:25:28.159Z,13.68
2019-03-09T01:30:34.259Z,15.68
2019-03-09T01:35:40.476Z,14.55
2019-03-09T01:40:46.755Z,13.40
2019-03-09T01:45:52.959Z,18.35
2019-03-09T01:50:59.270Z,12.75
2019-03-09T01:56:09.303Z,14.33
2019-03-09T02:01:15.489Z,14.68
2019-03-09T02:06:22.275Z,15.38
2019-03-09T02:11:28.395Z,10.45
2019-03-09T02:16:34.721Z,17.60
2019-03-09T02:21:40.849Z,14.38
2019-03-09T02:26:46.918Z,11.75
2019-03-09T02:31:53.192Z,12.10
2019-03-09T02:36:59.384Z,15.08
2019-03-09T02:42:05.542Z,18.57
2019-03-09T02:47:11.800Z,11.57
2019-03-09T02:52:18.336Z,16.73
2019-03-09T02:57:24.481Z,18.05
2019-03-09T03:02:36.251Z,17.67
2019-03-09T03:07:42.429Z,17.43
2019-03-09T03:12:48.507Z,20.80
2019-03-09T03:17:54.574Z,18.73
2019-03-09T03:23:00.921Z,16.40
2019-03-09T03:28:06.978Z,26.68
2019-03-09T03:33:13.499Z,14.40
2019-03-09T03:38:19.820Z,23.60
2019-03-09T03:43:25.888Z,21.50
2019-03-09T03:48:32.120Z,20.70
2019-03-09T03:53:38.289Z,21.70
2019-03-09T03:58:44.429Z,18.40
2019-03-09T04:03:50.680Z,30.05
2019-03-09T04:08:57.398Z,22.20
2019-03-09T04:14:03.268Z,19.32
2019-03-09T04:19:09.435Z,25.45
2019-03-09T04:24:15.544Z,31.10
2019-03-09T04:29:22.710Z,26.65
2019-03-09T04:34:28.993Z,31.12
2019-03-09T04:39:35.239Z,35.52
2019-03-09T04:44:41.499Z,26.27
2019-03-09T04:49:47.649Z,31.02
2019-03-09T04:54:53.867Z,20.10
2019-03-09T04:59:59.892Z,24.35
2019-03-09T05:05:06.969Z,28.50
2019-03-09T05:10:41.459Z,24.07
2019-03-09T05:15:47.383Z,24.67
2019-03-09T05:20:53.771Z,34.50
2019-03-09T05:25:59.968Z,31.80
2019-03-09T05:31:06.024Z,25.92
2019-03-09T05:36:13.109Z,18.87
2019-03-09T05:41:19.286Z,18.98
2019-03-09T05:46:25.460Z,18.45
2019-03-09T05:51:31.801Z,20.02
2019-03-09T05:56:37.732Z,21.73
2019-03-09T06:01:43.958Z,24.03
2019-03-09T06:06:50.207Z,21.35
2019-03-09T06:11:56.372Z,30.12
2019-03-09T06:17:02.273Z,24.10
2019-03-09T06:22:08.474Z,17.73
2019-03-09T06:27:14.794Z,16.70
2019-03-09T06:32:56.981Z,22.15
2019-03-09T06:38:31.560Z,20.53
2019-03-09T06:43:37.834Z,20.45
2019-03-09T06:48:44.190Z,31.75
2019-03-09T06:53:50.390Z,30.85
2019-03-09T06:58:56.537Z,21.07
2019-03-09T07:04:03.011Z,24.07
2019-03-09T07:09:09.278Z,25.72
2019-03-09T07:14:51.022Z,29.18
2019-03-09T07:19:57.098Z,29.60
2019-03-09T07:25:03.241Z,23.98
2019-03-09T07:30:13.454Z,23.98
2019-03-09T07:35:19.921Z,29.27
2019-03-09T07:40:26.061Z,26.65
2019-03-09T07:45:32.145Z,24.72
2019-03-09T07:50:38.547Z,26.95
2019-03-09T07:55:44.517Z,27.80
2019-03-09T08:00:50.672Z,25.35
2019-03-09T08:05:56.763Z,33.42
2019-03-09T08:11:03.149Z,29.02
2019-03-09T08:16:09.414Z,31.75
2019-03-09T08:21:15.764Z,25.32
2019-03-09T08:26:21.959Z,27.42
2019-03-09T08:31:28.128Z,27.05
2019-03-09T08:36:35.202Z,32.03
2019-03-09T08:41:41.534Z,29.00
2019-03-09T08:46:47.804Z,29.85
2019-03-09T08:51:54.031Z,26.17
2019-03-09T08:57:00.340Z,31.68
2019-03-09T09:02:06.635Z,38.05
2019-03-09T09:07:12.770Z,25.40
2019-03-09T09:12:37.118Z,26.23
2019-03-09T09:17:43.349Z,26.12
2019-03-09T09:22:49.656Z,30.08
2019-03-09T09:27:56.256Z,27.32
2019-03-09T09:33:02.552Z,28.23
2019-03-09T09:38:08.658Z,24.05
2019-03-09T09:43:14.870Z,16.37
2019-03-09T09:48:21.248Z,18.05
2019-03-09T09:53:27.663Z,18.35
2019-03-09T09:58:33.814Z,15.60
2019-03-09T10:03:42.583Z,10.93
2019-03-09T10:08:48.829Z,7.65
2019-03-09T10:13:54.932Z,7.12
2019-03-09T10:19:01.285Z,10.32
2019-03-09T10:24:07.624Z,10.05
2019-03-09T10:29:14.067Z,10.48
2019-03-09T10:34:20.056Z,15.48
2019-03-09T10:39:26.179Z,16.27
2019-03-09T10:44:32.511Z,27.22
2019-03-09T10:49:38.842Z,32.03
2019-03-09T10:54:45.050Z,24.87
2019-03-09T10:59:51.465Z,38.83
2019-03-09T11:04:57.765Z,35.95
2019-03-09T11:10:18.009Z,26.10
2019-03-09T11:15:26.294Z,18.82
2019-03-09T11:20:32.419Z,24.02
2019-03-09T11:25:38.518Z,28.32
2019-03-09T11:30:44.838Z,20.43
2019-03-09T11:35:50.914Z,22.60
2019-03-09T11:41:00.542Z,25.60
2019-03-09T11:46:04.924Z,28.02
2019-03-09T11:51:11.127Z,23.92
2019-03-09T11:56:17.459Z,41.20
2019-03-09T12:01:23.649Z,36.95
2019-03-09T12:06:29.930Z,37.53
2019-03-09T12:11:36.294Z,41.63
2019-03-09T12:16:42.580Z,28.23
2019-03-09T12:21:48.849Z,35.25
2019-03-09T12:26:55.224Z,38.53
2019-03-09T12:32:02.133Z,28.75
2019-03-09T12:37:08.145Z,28.83
2019-03-09T12:42:14.416Z,32.23
2019-03-09T12:47:20.555Z,39.15
2019-03-09T12:52:27.448Z,40.38
2019-03-09T12:57:33.621Z,40.25
2019-03-09T13:02:39.920Z,37.28
2019-03-09T13:07:46.041Z,46.37
2019-03-09T13:12:52.083Z,31.43
2019-03-09T13:17:58.245Z,34.25
2019-03-09T13:23:04.560Z,37.03
2019-03-09T13:28:10.998Z,48.45
2019-03-09T13:33:18.196Z,35.78
2019-03-09T13:38:24.425Z,37.23
2019-03-09T13:43:30.482Z,47.27
2019-03-09T13:48:36.826Z,38.73
2019-03-09T13:53:43.228Z,45.23
2019-03-09T13:58:49.411Z,33.42
2019-03-09T14:03:55.684Z,45.00
2019-03-09T14:09:01.777Z,43.65
2019-03-09T14:14:08.044Z,57.50
2019-03-09T14:19:14.652Z,44.08
2019-03-09T14:24:21.026Z,29.12
2019-03-09T14:29:27.108Z,35.30
2019-03-09T14:34:33.459Z,31.93
2019-03-09T14:39:39.768Z,22.60
2019-03-09T14:44:45.982Z,28.45
2019-03-09T14:49:52.489Z,25.40
2019-03-09T14:54:58.642Z,24.82
2019-03-09T15:00:05.082Z,21.75
2019-03-09T15:05:11.300Z,14.13
2019-03-09T15:10:17.792Z,22.30
2019-03-09T15:15:24.466Z,18.02
2019-03-09T15:20:30.807Z,21.23
2019-03-09T15:25:37.068Z,26.23
2019-03-09T15:30:43.516Z,33.42
2019-03-09T15:35:49.544Z,42.15
2019-03-09T15:40:55.775Z,40.65
2019-03-09T15:46:02.154Z,43.45
2019-03-09T15:51:08.350Z,30.45
2019-03-09T15:56:14.531Z,45.00
2019-03-09T16:01:20.873Z,47.75
2019-03-09T16:06:27.155Z,42.73
2019-03-09T16:11:33.473Z,45.30
2019-03-09T16:16:39.823Z,45.20
2019-03-09T16:21:46.157Z,46.15
2019-03-09T16:26:52.391Z,42.98
2019-03-09T16:31:58.686Z,48.48
2019-03-09T16:37:05.004Z,46.33
2019-03-09T16:42:11.248Z,52.20
2019-03-09T16:47:17.626Z,39.65
2019-03-09T16:52:24.339Z,43.60
2019-03-09T16:57:30.865Z,47.93
2019-03-09T17:02:37.310Z,41.42
2019-03-09T17:07:43.772Z,39.15
2019-03-09T17:12:50.559Z,29.57
2019-03-09T17:17:56.828Z,42.23
2019-03-09T17:23:03.237Z,48.83
2019-03-09T17:28:09.779Z,36.50
2019-03-09T17:33:16.320Z,51.30
2019-03-09T17:38:22.872Z,46.28
2019-03-09T17:43:29.481Z,33.38
2019-03-09T17:48:35.821Z,40.30
2019-03-09T17:53:42.519Z,32.35
2019-03-09T17:58:48.725Z,42.25
2019-03-09T18:03:54.981Z,43.30
2019-03-09T18:09:01.807Z,38.58
2019-03-09T18:14:08.269Z,31.37
2019-03-09T18:19:14.461Z,35.70
2019-03-09T18:24:21.387Z,29.02
2019-03-09T18:29:27.627Z,37.63
2019-03-09T18:34:33.774Z,32.80
2019-03-09T18:39:40.466Z,34.78
2019-03-09T18:44:46.627Z,23.90
2019-03-09T18:49:52.845Z,26.00
2019-03-09T18:54:59.059Z,31.25
2019-03-09T19:00:05.898Z,31.65
2019-03-09T19:05:12.588Z,22.90
2019-03-09T19:10:19.170Z,27.58
2019-03-09T19:15:25.345Z,36.55
2019-03-09T19:20:31.687Z,23.73
2019-03-09T19:25:37.556Z,33.13
2019-03-09T19:30:43.763Z,37.55
2019-03-09T19:35:49.999Z,33.18
2019-03-09T19:40:57.117Z,34.27
2019-03-09T19:46:03.462Z,30.23
2019-03-09T19:51:10.699Z,39.58
2019-03-09T19:56:16.913Z,50.52
2019-03-09T20:01:23.283Z,51.30
2019-03-09T20:06:29.343Z,36.33
2019-03-09T20:11:35.750Z,35.15
2019-03-09T20:16:41.800Z,41.25
2019-03-09T20:21:48.098Z,40.45
2019-03-09T20:26:54.261Z,40.45
2019-03-09T20:32:00.244Z,46.37
2019-03-09T20:37:06.515Z,37.53
2019-03-09T20:42:12.850Z,49.38
2019-03-09T20:47:19.174Z,52.53
2019-03-09T20:52:25.316Z,37.30
2019-03-09T20:57:31.692Z,45.17
2019-03-09T21:02:37.708Z,36.08
2019-03-09T21:07:44.190Z,39.53
2019-03-09T21:13:02.162Z,47.95
2019-03-09T21:18:08.511Z,58.02
2019-03-09T21:23:14.690Z,60.20
2019-03-09T21:28:20.936Z,52.45
2019-03-09T21:33:27.123Z,58.58
2019-03-09T21:38:33.441Z,50.70
2019-03-09T21:43:39.808Z,36.05
2019-03-09T21:48:46.006Z,38.42
2019-03-09T21:53:52.226Z,34.88
2019-03-09T21:58:58.435Z,38.65
2019-03-09T22:04:04.543Z,56.58
2019-03-09T22:09:10.855Z,55.15
2019-03-09T22:14:16.941Z,37.35
2019-03-09T22:19:23.207Z,39.92
2019-03-09T22:24:29.411Z,31.05
2019-03-09T22:29:35.432Z,44.20
2019-03-09T22:34:41.444Z,34.58
2019-03-09T22:39:47.525Z,33.20
2019-03-09T22:44:54.121Z,30.37
2019-03-09T22:50:00.417Z,26.93
2019-03-09T22:55:06.887Z,22.60
2019-03-09T23:00:16.145Z,26.70
2019-03-09T23:05:22.288Z,25.12
2019-03-09T23:10:28.491Z,25.65
2019-03-09T23:15:34.660Z,29.45
2019-03-09T23:20:40.624Z,23.30
2019-03-09T23:25:46.882Z,36.30
2019-03-09T23:30:54.538Z,25.30
2019-03-09T23:36:00.972Z,35.35
2019-03-09T23:41:07.040Z,28.47
2019-03-09T23:46:13.229Z,30.92
2019-03-09T23:51:19.631Z,31.05
2019-03-09T23:56:25.958Z,23.83
